SETU/TUA METAR and TAF weather

Enter ICAO airport designator
Station Type Date Time Source
SETU METAR 2019/06/26 16:00 UTC NOAA

SETU 261600Z 09010KT 9999 BKN020 16/10 Q1032


Station Type Date Time Source
SETU Decoded METAR 2019/06/26 16:00 UTC NOAA

Tulcan / El Rosal, Ecuador (SETU) 00-49N 077-42W
Jun 26, 2019 - 12:00 PM EDT / 2019.06.26 1600 UTC
Wind: from the E (090 degrees) at 12 MPH (10 KT):0
Visibility: greater than 7 mile(s):0
Sky conditions: mostly cloudy
Temperature: 60 F (16 C)
Dew Point: 50 F (10 C)
Relative Humidity: 67%
Pressure (altimeter): 30.47 in. Hg (1032 hPa)
ob: SETU 261600Z 09010KT 9999 BKN020 16/10 Q1032
cycle: 16

Station Type Date Time Source
SETU TAF UTC NOAA

Error!

Example: see airport list